sensor_id;sensor_type;location;lat;lon;timestamp;pressure;altitude;pressure_sealevel;temperature;humidity
11672;BME280;5892;43.412;24.612;2023-02-23T00:01:13;99886.34;;;7.42;84.93
11672;BME280;5892;43.412;24.612;2023-02-23T00:03:43;99886.16;;;7.52;84.81
11672;BME280;5892;43.412;24.612;2023-02-23T00:06:10;99885.75;;;7.45;84.93
11672;BME280;5892;43.412;24.612;2023-02-23T00:08:39;99901.44;;;7.53;85.54
11672;BME280;5892;43.412;24.612;2023-02-23T00:11:08;99867.63;;;7.21;85.51
11672;BME280;5892;43.412;24.612;2023-02-23T00:13:37;99906.44;;;7.46;85.86
11672;BME280;5892;43.412;24.612;2023-02-23T00:16:05;99869.03;;;7.19;85.61
11672;BME280;5892;43.412;24.612;2023-02-23T00:18:32;99878.22;;;7.23;85.81
11672;BME280;5892;43.412;24.612;2023-02-23T00:21:11;99905.00;;;7.35;86.12
11672;BME280;5892;43.412;24.612;2023-02-23T00:23:41;99904.16;;;7.20;86.83
11672;BME280;5892;43.412;24.612;2023-02-23T00:26:08;99906.31;;;7.05;88.24
11672;BME280;5892;43.412;24.612;2023-02-23T00:28:38;99903.88;;;7.03;88.42
11672;BME280;5892;43.412;24.612;2023-02-23T00:31:06;99896.88;;;7.16;88.34
11672;BME280;5892;43.412;24.612;2023-02-23T00:33:33;99903.97;;;7.17;88.48
11672;BME280;5892;43.412;24.612;2023-02-23T00:36:04;99900.09;;;7.18;88.49
11672;BME280;5892;43.412;24.612;2023-02-23T00:38:34;99839.59;;;6.70;87.52
11672;BME280;5892;43.412;24.612;2023-02-23T00:41:05;99917.97;;;7.10;87.97
11672;BME280;5892;43.412;24.612;2023-02-23T00:43:34;99896.41;;;6.95;88.00
11672;BME280;5892;43.412;24.612;2023-02-23T00:46:01;99826.00;;;6.51;88.36
11672;BME280;5892;43.412;24.612;2023-02-23T00:48:30;99864.03;;;6.75;88.88
11672;BME280;5892;43.412;24.612;2023-02-23T00:50:58;99896.81;;;7.02;88.60
11672;BME280;5892;43.412;24.612;2023-02-23T00:53:25;99898.41;;;6.90;89.51
11672;BME280;5892;43.412;24.612;2023-02-23T00:55:54;99903.84;;;6.71;90.57
11672;BME280;5892;43.412;24.612;2023-02-23T00:58:22;99887.16;;;6.59;90.69
11672;BME280;5892;43.412;24.612;2023-02-23T01:00:48;99905.19;;;6.73;90.41
11672;BME280;5892;43.412;24.612;2023-02-23T01:03:15;99885.09;;;6.69;90.32
11672;BME280;5892;43.412;24.612;2023-02-23T01:05:43;99899.56;;;6.84;89.65
11672;BME280;5892;43.412;24.612;2023-02-23T01:08:10;99896.66;;;6.80;89.76
11672;BME280;5892;43.412;24.612;2023-02-23T01:10:40;99893.69;;;6.76;90.72
11672;BME280;5892;43.412;24.612;2023-02-23T01:13:09;99820.81;;;6.17;90.35
11672;BME280;5892;43.412;24.612;2023-02-23T01:15:40;99840.56;;;6.23;90.38
11672;BME280;5892;43.412;24.612;2023-02-23T01:18:07;99886.56;;;6.62;90.48
11672;BME280;5892;43.412;24.612;2023-02-23T01:20:34;99883.38;;;6.55;91.21
11672;BME280;5892;43.412;24.612;2023-02-23T01:23:02;99886.41;;;6.53;90.96
11672;BME280;5892;43.412;24.612;2023-02-23T01:25:29;99872.34;;;6.46;91.43
11672;BME280;5892;43.412;24.612;2023-02-23T01:27:56;99893.16;;;6.56;91.05
11672;BME280;5892;43.412;24.612;2023-02-23T01:30:24;99895.31;;;6.59;90.69
11672;BME280;5892;43.412;24.612;2023-02-23T01:32:51;99818.03;;;5.99;90.55
11672;BME280;5892;43.412;24.612;2023-02-23T01:35:18;99886.91;;;6.55;90.84
11672;BME280;5892;43.412;24.612;2023-02-23T01:37:45;99890.31;;;6.47;91.58
11672;BME280;5892;43.412;24.612;2023-02-23T01:40:16;99885.97;;;6.46;91.96
11672;BME280;5892;43.412;24.612;2023-02-23T01:42:55;99887.88;;;6.46;91.80
11672;BME280;5892;43.412;24.612;2023-02-23T01:45:30;99900.31;;;6.52;91.94
11672;BME280;5892;43.412;24.612;2023-02-23T01:48:02;99880.66;;;6.36;91.80
11672;BME280;5892;43.412;24.612;2023-02-23T01:50:39;99896.31;;;6.44;91.71
11672;BME280;5892;43.412;24.612;2023-02-23T01:53:08;99864.81;;;6.19;91.82
11672;BME280;5892;43.412;24.612;2023-02-23T01:55:35;99819.63;;;5.81;92.22
11672;BME280;5892;43.412;24.612;2023-02-23T01:58:09;99879.47;;;6.23;92.66
11672;BME280;5892;43.412;24.612;2023-02-23T02:00:43;99894.94;;;6.28;92.93
11672;BME280;5892;43.412;24.612;2023-02-23T02:03:15;99893.06;;;6.23;93.29
11672;BME280;5892;43.412;24.612;2023-02-23T02:05:43;99877.25;;;6.07;92.99
11672;BME280;5892;43.412;24.612;2023-02-23T02:08:11;99797.47;;;5.69;92.85
11672;BME280;5892;43.412;24.612;2023-02-23T02:10:38;99844.03;;;5.86;93.23
11672;BME280;5892;43.412;24.612;2023-02-23T02:13:07;99889.44;;;6.09;93.04
11672;BME280;5892;43.412;24.612;2023-02-23T02:15:48;99888.47;;;6.00;94.15
11672;BME280;5892;43.412;24.612;2023-02-23T02:18:24;99900.66;;;6.03;93.63
11672;BME280;5892;43.412;24.612;2023-02-23T02:27:11;99886.47;;;5.82;93.98
11672;BME280;5892;43.412;24.612;2023-02-23T02:30:09;99872.44;;;5.75;93.81
11672;BME280;5892;43.412;24.612;2023-02-23T02:33:10;99891.50;;;5.70;94.02
11672;BME280;5892;43.412;24.612;2023-02-23T02:36:10;99873.34;;;5.65;94.39
11672;BME280;5892;43.412;24.612;2023-02-23T02:38:50;99891.31;;;5.61;94.34
11672;BME280;5892;43.412;24.612;2023-02-23T02:41:26;99882.41;;;5.55;95.75
11672;BME280;5892;43.412;24.612;2023-02-23T02:44:06;99892.31;;;5.70;94.73
11672;BME280;5892;43.412;24.612;2023-02-23T02:46:37;99896.91;;;5.75;95.16
11672;BME280;5892;43.412;24.612;2023-02-23T02:49:13;99895.78;;;5.76;95.22
11672;BME280;5892;43.412;24.612;2023-02-23T02:51:47;99896.63;;;5.71;95.13
11672;BME280;5892;43.412;24.612;2023-02-23T02:54:23;99852.72;;;5.35;96.08
11672;BME280;5892;43.412;24.612;2023-02-23T02:56:52;99897.16;;;5.49;97.44
11672;BME280;5892;43.412;24.612;2023-02-23T02:59:22;99896.72;;;5.37;97.57
11672;BME280;5892;43.412;24.612;2023-02-23T03:02:13;99882.66;;;5.30;97.14
11672;BME280;5892;43.412;24.612;2023-02-23T03:04:58;99906.34;;;5.53;96.81
11672;BME280;5892;43.412;24.612;2023-02-23T03:07:49;99914.78;;;5.52;95.97
11672;BME280;5892;43.412;24.612;2023-02-23T03:10:43;99914.59;;;5.43;95.92
11672;BME280;5892;43.412;24.612;2023-02-23T03:13:38;99918.91;;;5.49;95.77
11672;BME280;5892;43.412;24.612;2023-02-23T03:16:30;99926.78;;;5.46;96.06
11672;BME280;5892;43.412;24.612;2023-02-23T03:19:22;99865.13;;;4.84;97.21
11672;BME280;5892;43.412;24.612;2023-02-23T03:22:15;99916.97;;;5.21;97.68
11672;BME280;5892;43.412;24.612;2023-02-23T03:25:06;99913.84;;;5.04;97.97
11672;BME280;5892;43.412;24.612;2023-02-23T03:27:58;99936.56;;;5.13;97.85
11672;BME280;5892;43.412;24.612;2023-02-23T03:30:50;99917.38;;;5.04;97.91
11672;BME280;5892;43.412;24.612;2023-02-23T03:33:40;99936.69;;;4.98;98.87
11672;BME280;5892;43.412;24.612;2023-02-23T03:36:31;99933.19;;;4.92;99.47
11672;BME280;5892;43.412;24.612;2023-02-23T03:39:21;99918.88;;;4.82;99.13
11672;BME280;5892;43.412;24.612;2023-02-23T03:42:15;99929.16;;;4.90;99.48
11672;BME280;5892;43.412;24.612;2023-02-23T03:45:06;99891.81;;;4.72;99.74
11672;BME280;5892;43.412;24.612;2023-02-23T03:47:52;99942.97;;;4.93;99.88
11672;BME280;5892;43.412;24.612;2023-02-23T03:50:41;99942.44;;;4.96;99.64
11672;BME280;5892;43.412;24.612;2023-02-23T03:53:30;99935.09;;;4.97;99.60
11672;BME280;5892;43.412;24.612;2023-02-23T03:56:18;99938.84;;;5.01;99.12
11672;BME280;5892;43.412;24.612;2023-02-23T03:59:05;99935.59;;;4.99;99.32
11672;BME280;5892;43.412;24.612;2023-02-23T04:01:53;99939.97;;;4.95;100.00
11672;BME280;5892;43.412;24.612;2023-02-23T04:04:38;99937.84;;;4.92;99.28
11672;BME280;5892;43.412;24.612;2023-02-23T04:07:24;99939.75;;;4.91;99.74
11672;BME280;5892;43.412;24.612;2023-02-23T04:10:09;99938.31;;;4.60;100.00
11672;BME280;5892;43.412;24.612;2023-02-23T04:12:59;99956.47;;;4.64;100.00
11672;BME280;5892;43.412;24.612;2023-02-23T04:15:49;99953.25;;;4.52;100.00
11672;BME280;5892;43.412;24.612;2023-02-23T04:18:21;99940.53;;;4.48;100.00
11672;BME280;5892;43.412;24.612;2023-02-23T04:20:49;99951.16;;;4.44;100.00
11672;BME280;5892;43.412;24.612;2023-02-23T04:23:17;99957.94;;;4.42;100.00
11672;BME280;5892;43.412;24.612;2023-02-23T04:25:43;99954.94;;;4.43;100.00
11672;BME280;5892;43.412;24.612;2023-02-23T04:28:12;99956.00;;;4.47;100.00
11672;BME280;5892;43.412;24.612;2023-02-23T04:30:39;99957.13;;;4.36;100.00
11672;BME280;5892;43.412;24.612;2023-02-23T04:33:06;99964.47;;;4.36;100.00
11672;BME280;5892;43.412;24.612;2023-02-23T04:35:34;99968.59;;;4.23;100.00
11672;BME280;5892;43.412;24.612;2023-02-23T04:38:01;99857.41;;;3.49;100.00
11672;BME280;5892;43.412;24.612;2023-02-23T04:40:28;99965.88;;;4.23;100.00
11672;BME280;5892;43.412;24.612;2023-02-23T04:42:55;99968.00;;;4.31;100.00
11672;BME280;5892;43.412;24.612;2023-02-23T04:45:23;99989.72;;;4.31;100.00
11672;BME280;5892;43.412;24.612;2023-02-23T04:47:50;99971.84;;;4.20;100.00
11672;BME280;5892;43.412;24.612;2023-02-23T04:50:18;99962.66;;;4.11;100.00
11672;BME280;5892;43.412;24.612;2023-02-23T04:52:46;99978.31;;;4.34;100.00
11672;BME280;5892;43.412;24.612;2023-02-23T04:55:16;99974.03;;;4.23;100.00
11672;BME280;5892;43.412;24.612;2023-02-23T04:57:43;99981.56;;;4.31;100.00
11672;BME280;5892;43.412;24.612;2023-02-23T05:00:11;99962.91;;;4.14;100.00
11672;BME280;5892;43.412;24.612;2023-02-23T05:02:38;99983.78;;;4.14;100.00
11672;BME280;5892;43.412;24.612;2023-02-23T05:05:06;99992.97;;;4.28;100.00
11672;BME280;5892;43.412;24.612;2023-02-23T05:07:34;99994.91;;;4.22;100.00
11672;BME280;5892;43.412;24.612;2023-02-23T05:10:03;99981.59;;;4.21;100.00
11672;BME280;5892;43.412;24.612;2023-02-23T05:12:30;99994.63;;;4.14;100.00
11672;BME280;5892;43.412;24.612;2023-02-23T05:14:57;100008.19;;;4.29;100.00
11672;BME280;5892;43.412;24.612;2023-02-23T05:17:24;100011.16;;;4.28;100.00
11672;BME280;5892;43.412;24.612;2023-02-23T05:19:51;100000.31;;;4.22;100.00
11672;BME280;5892;43.412;24.612;2023-02-23T05:22:19;100020.88;;;4.39;100.00
11672;BME280;5892;43.412;24.612;2023-02-23T05:24:46;100003.25;;;4.31;100.00
11672;BME280;5892;43.412;24.612;2023-02-23T05:27:14;99999.19;;;4.34;100.00
11672;BME280;5892;43.412;24.612;2023-02-23T05:29:42;100034.91;;;4.56;100.00
11672;BME280;5892;43.412;24.612;2023-02-23T05:32:09;100025.19;;;4.40;100.00
11672;BME280;5892;43.412;24.612;2023-02-23T05:34:36;100038.66;;;4.70;100.00
11672;BME280;5892;43.412;24.612;2023-02-23T05:37:03;100058.41;;;4.86;100.00
11672;BME280;5892;43.412;24.612;2023-02-23T05:39:30;100047.56;;;4.86;100.00
11672;BME280;5892;43.412;24.612;2023-02-23T05:41:57;100042.03;;;5.01;100.00
11672;BME280;5892;43.412;24.612;2023-02-23T05:44:26;100062.06;;;5.15;99.44
11672;BME280;5892;43.412;24.612;2023-02-23T05:46:53;100047.53;;;5.35;97.51
11672;BME280;5892;43.412;24.612;2023-02-23T05:49:19;100062.97;;;5.39;97.00
11672;BME280;5892;43.412;24.612;2023-02-23T05:51:47;100051.56;;;5.42;96.36
11672;BME280;5892;43.412;24.612;2023-02-23T05:54:13;100075.59;;;5.64;94.21
11672;BME280;5892;43.412;24.612;2023-02-23T05:56:40;100075.91;;;5.91;93.58
11672;BME280;5892;43.412;24.612;2023-02-23T05:59:07;100082.81;;;6.13;92.92
11672;BME280;5892;43.412;24.612;2023-02-23T06:01:36;100081.81;;;6.32;91.45
11672;BME280;5892;43.412;24.612;2023-02-23T06:04:03;100019.47;;;6.07;89.07
11672;BME280;5892;43.412;24.612;2023-02-23T06:06:30;100069.84;;;6.28;88.44
11672;BME280;5892;43.412;24.612;2023-02-23T06:08:57;100029.63;;;6.25;87.20
11672;BME280;5892;43.412;24.612;2023-02-23T06:11:24;100084.56;;;6.80;86.26
11672;BME280;5892;43.412;24.612;2023-02-23T06:13:51;100095.38;;;6.85;85.43
11672;BME280;5892;43.412;24.612;2023-02-23T06:16:18;100096.97;;;6.86;85.05
11672;BME280;5892;43.412;24.612;2023-02-23T06:18:46;99947.53;;;5.94;83.94
11672;BME280;5892;43.412;24.612;2023-02-23T06:21:13;100057.88;;;6.77;83.54
11672;BME280;5892;43.412;24.612;2023-02-23T06:23:40;100092.53;;;7.14;83.32
11672;BME280;5892;43.412;24.612;2023-02-23T06:26:08;100101.84;;;7.32;83.48
11672;BME280;5892;43.412;24.612;2023-02-23T06:28:35;99991.63;;;6.63;85.08
11672;BME280;5892;43.412;24.612;2023-02-23T06:31:02;100066.91;;;7.34;87.19
11672;BME280;5892;43.412;24.612;2023-02-23T06:33:29;100077.03;;;7.52;84.17
11672;BME280;5892;43.412;24.612;2023-02-23T06:35:57;100088.28;;;7.64;82.12
11672;BME280;5892;43.412;24.612;2023-02-23T06:38:24;100080.53;;;8.03;80.74
11672;BME280;5892;43.412;24.612;2023-02-23T06:41:08;100088.47;;;8.19;81.08
11672;BME280;5892;43.412;24.612;2023-02-23T06:43:35;100104.56;;;8.53;81.11
11672;BME280;5892;43.412;24.612;2023-02-23T06:46:04;100086.47;;;8.24;79.11
11672;BME280;5892;43.412;24.612;2023-02-23T06:48:32;100113.41;;;8.44;79.10
11672;BME280;5892;43.412;24.612;2023-02-23T06:51:01;100109.09;;;8.57;78.87
11672;BME280;5892;43.412;24.612;2023-02-23T06:53:28;100117.50;;;8.74;77.84
11672;BME280;5892;43.412;24.612;2023-02-23T06:55:55;100114.66;;;8.79;77.23
11672;BME280;5892;43.412;24.612;2023-02-23T06:58:22;100117.09;;;8.81;77.77
11672;BME280;5892;43.412;24.612;2023-02-23T07:00:49;100104.44;;;8.71;77.17
11672;BME280;5892;43.412;24.612;2023-02-23T07:03:18;100035.94;;;8.54;76.94
11672;BME280;5892;43.412;24.612;2023-02-23T07:05:45;100106.56;;;9.02;76.88
11672;BME280;5892;43.412;24.612;2023-02-23T07:08:13;100112.00;;;9.29;76.67
11672;BME280;5892;43.412;24.612;2023-02-23T07:10:41;100107.72;;;9.50;77.03
11672;BME280;5892;43.412;24.612;2023-02-23T07:13:08;100063.06;;;9.05;78.07
11672;BME280;5892;43.412;24.612;2023-02-23T07:15:39;100121.44;;;9.59;78.41
11672;BME280;5892;43.412;24.612;2023-02-23T07:18:07;100080.19;;;9.33;78.15
11672;BME280;5892;43.412;24.612;2023-02-23T07:20:34;100100.91;;;9.84;77.36
11672;BME280;5892;43.412;24.612;2023-02-23T07:23:01;100086.81;;;9.54;77.10
11672;BME280;5892;43.412;24.612;2023-02-23T07:25:29;100126.97;;;10.03;76.58
11672;BME280;5892;43.412;24.612;2023-02-23T07:27:57;100066.59;;;9.77;76.31
11672;BME280;5892;43.412;24.612;2023-02-23T07:30:24;100129.53;;;10.22;75.78
11672;BME280;5892;43.412;24.612;2023-02-23T07:32:52;100139.25;;;10.28;75.94
11672;BME280;5892;43.412;24.612;2023-02-23T07:35:19;100137.22;;;10.42;75.02
11672;BME280;5892;43.412;24.612;2023-02-23T07:37:46;100104.00;;;10.13;74.84
11672;BME280;5892;43.412;24.612;2023-02-23T07:40:13;100149.69;;;10.26;75.00
11672;BME280;5892;43.412;24.612;2023-02-23T07:42:42;100117.88;;;10.39;75.06
11672;BME280;5892;43.412;24.612;2023-02-23T07:45:09;100016.31;;;9.73;74.92
11672;BME280;5892;43.412;24.612;2023-02-23T07:47:36;100142.78;;;10.51;75.14
11672;BME280;5892;43.412;24.612;2023-02-23T07:50:05;100099.97;;;10.33;74.41
11672;BME280;5892;43.412;24.612;2023-02-23T07:52:35;100032.72;;;9.96;73.98
11672;BME280;5892;43.412;24.612;2023-02-23T07:55:02;100140.16;;;10.77;74.22
11672;BME280;5892;43.412;24.612;2023-02-23T07:57:29;100156.94;;;10.84;73.70
11672;BME280;5892;43.412;24.612;2023-02-23T07:59:57;100120.16;;;10.68;73.63
11672;BME280;5892;43.412;24.612;2023-02-23T08:02:24;100150.94;;;11.04;73.29
11672;BME280;5892;43.412;24.612;2023-02-23T08:04:53;100159.34;;;11.16;72.88
11672;BME280;5892;43.412;24.612;2023-02-23T08:07:20;100149.63;;;11.10;73.06
11672;BME280;5892;43.412;24.612;2023-02-23T08:09:47;100154.16;;;11.06;73.72
11672;BME280;5892;43.412;24.612;2023-02-23T08:12:14;100137.53;;;11.11;73.03
11672;BME280;5892;43.412;24.612;2023-02-23T08:14:41;100156.28;;;11.09;72.97
11672;BME280;5892;43.412;24.612;2023-02-23T08:17:10;100153.53;;;11.09;74.06
11672;BME280;5892;43.412;24.612;2023-02-23T08:19:37;100147.91;;;11.31;73.34
11672;BME280;5892;43.412;24.612;2023-02-23T08:22:05;100153.56;;;11.26;72.63
11672;BME280;5892;43.412;24.612;2023-02-23T08:24:31;100159.72;;;11.32;72.86
11672;BME280;5892;43.412;24.612;2023-02-23T08:27:00;100142.44;;;11.23;72.72
11672;BME280;5892;43.412;24.612;2023-02-23T08:29:27;100143.06;;;11.20;72.08
11672;BME280;5892;43.412;24.612;2023-02-23T08:31:54;100151.94;;;11.25;72.57
11672;BME280;5892;43.412;24.612;2023-02-23T08:34:23;100102.72;;;11.20;72.15
11672;BME280;5892;43.412;24.612;2023-02-23T08:36:50;100162.66;;;11.53;72.12
11672;BME280;5892;43.412;24.612;2023-02-23T08:39:18;100070.91;;;11.02;71.80
11672;BME280;5892;43.412;24.612;2023-02-23T08:41:45;100139.06;;;11.34;72.52
11672;BME280;5892;43.412;24.612;2023-02-23T08:44:12;100158.16;;;11.65;71.65
11672;BME280;5892;43.412;24.612;2023-02-23T08:46:39;100166.94;;;11.76;71.71
11672;BME280;5892;43.412;24.612;2023-02-23T08:49:06;100160.22;;;11.42;72.36
11672;BME280;5892;43.412;24.612;2023-02-23T08:51:36;100116.28;;;11.17;72.34
11672;BME280;5892;43.412;24.612;2023-02-23T08:54:05;100161.63;;;11.31;73.19
11672;BME280;5892;43.412;24.612;2023-02-23T08:56:37;100171.19;;;11.34;73.25
11672;BME280;5892;43.412;24.612;2023-02-23T08:59:04;100097.00;;;10.91;72.57
11672;BME280;5892;43.412;24.612;2023-02-23T09:01:31;100169.63;;;11.59;72.47
11672;BME280;5892;43.412;24.612;2023-02-23T09:03:58;100109.88;;;11.38;71.63
11672;BME280;5892;43.412;24.612;2023-02-23T09:06:25;100109.81;;;11.04;71.60
11672;BME280;5892;43.412;24.612;2023-02-23T09:08:55;100172.41;;;11.76;71.69
11672;BME280;5892;43.412;24.612;2023-02-23T09:11:35;100171.09;;;11.56;70.79
11672;BME280;5892;43.412;24.612;2023-02-23T09:14:02;100194.31;;;11.67;71.40
11672;BME280;5892;43.412;24.612;2023-02-23T09:16:29;100169.47;;;11.64;71.00
11672;BME280;5892;43.412;24.612;2023-02-23T09:18:56;100169.47;;;11.64;71.05
11672;BME280;5892;43.412;24.612;2023-02-23T09:21:25;100160.25;;;11.60;70.49
11672;BME280;5892;43.412;24.612;2023-02-23T09:23:55;100114.41;;;11.60;69.78
11672;BME280;5892;43.412;24.612;2023-02-23T09:26:23;100175.94;;;12.37;68.30
11672;BME280;5892;43.412;24.612;2023-02-23T09:28:51;100094.69;;;11.41;68.14
11672;BME280;5892;43.412;24.612;2023-02-23T09:31:20;100185.84;;;11.86;69.08
11672;BME280;5892;43.412;24.612;2023-02-23T09:33:48;100151.84;;;11.47;70.10
11672;BME280;5892;43.412;24.612;2023-02-23T09:36:18;100163.16;;;11.63;69.76
11672;BME280;5892;43.412;24.612;2023-02-23T09:38:47;100185.66;;;11.74;69.42
11672;BME280;5892;43.412;24.612;2023-02-23T09:44:15;100158.88;;;11.97;68.93
11672;BME280;5892;43.412;24.612;2023-02-23T09:46:51;100177.75;;;12.32;68.07
11672;BME280;5892;43.412;24.612;2023-02-23T09:49:27;100181.44;;;12.54;67.06
11672;BME280;5892;43.412;24.612;2023-02-23T09:51:57;100076.66;;;11.92;66.07
11672;BME280;5892;43.412;24.612;2023-02-23T09:54:28;100183.97;;;12.67;66.20
11672;BME280;5892;43.412;24.612;2023-02-23T09:56:59;100189.03;;;12.48;66.65
11672;BME280;5892;43.412;24.612;2023-02-23T09:59:28;100184.19;;;12.54;66.72
11672;BME280;5892;43.412;24.612;2023-02-23T10:02:00;100133.78;;;12.32;66.14
11672;BME280;5892;43.412;24.612;2023-02-23T10:04:34;100186.22;;;12.74;65.70
11672;BME280;5892;43.412;24.612;2023-02-23T10:07:10;100190.09;;;12.73;65.86
11672;BME280;5892;43.412;24.612;2023-02-23T10:09:50;100194.63;;;12.78;65.44
11672;BME280;5892;43.412;24.612;2023-02-23T10:12:26;100178.28;;;12.81;65.39
11672;BME280;5892;43.412;24.612;2023-02-23T10:15:01;100183.88;;;12.93;65.05
11672;BME280;5892;43.412;24.612;2023-02-23T10:17:36;100132.94;;;12.49;65.12
11672;BME280;5892;43.412;24.612;2023-02-23T10:20:12;100160.28;;;12.37;65.72
11672;BME280;5892;43.412;24.612;2023-02-23T10:22:43;100180.63;;;12.36;66.73
11672;BME280;5892;43.412;24.612;2023-02-23T10:25:13;100187.75;;;12.54;66.77
11672;BME280;5892;43.412;24.612;2023-02-23T10:27:46;100178.06;;;12.40;66.40
11672;BME280;5892;43.412;24.612;2023-02-23T10:30:20;100142.38;;;12.22;66.51
11672;BME280;5892;43.412;24.612;2023-02-23T10:32:51;100176.72;;;12.71;65.72
11672;BME280;5892;43.412;24.612;2023-02-23T10:35:21;100165.44;;;12.94;64.85
11672;BME280;5892;43.412;24.612;2023-02-23T10:37:50;100158.94;;;13.07;63.93
11672;BME280;5892;43.412;24.612;2023-02-23T10:40:19;100168.59;;;13.22;63.26
11672;BME280;5892;43.412;24.612;2023-02-23T10:42:49;100158.59;;;13.08;63.36
11672;BME280;5892;43.412;24.612;2023-02-23T10:45:18;100164.59;;;13.40;62.81
11672;BME280;5892;43.412;24.612;2023-02-23T10:47:54;100130.84;;;12.93;63.57
11672;BME280;5892;43.412;24.612;2023-02-23T10:50:24;100103.81;;;12.57;64.61
11672;BME280;5892;43.412;24.612;2023-02-23T10:52:56;100142.53;;;12.81;64.55
11672;BME280;5892;43.412;24.612;2023-02-23T10:55:26;100142.56;;;12.72;64.80
11672;BME280;5892;43.412;24.612;2023-02-23T10:58:04;100153.81;;;12.88;64.28
11672;BME280;5892;43.412;24.612;2023-02-23T11:00:34;100093.94;;;12.94;62.88
11672;BME280;5892;43.412;24.612;2023-02-23T11:03:01;100148.38;;;13.47;62.38
11672;BME280;5892;43.412;24.612;2023-02-23T11:05:35;100158.50;;;13.84;61.42
11672;BME280;5892;43.412;24.612;2023-02-23T11:08:13;100153.38;;;13.74;61.11
11672;BME280;5892;43.412;24.612;2023-02-23T11:10:57;100130.22;;;13.25;61.84
11672;BME280;5892;43.412;24.612;2023-02-23T11:13:28;100083.75;;;12.94;62.23
11672;BME280;5892;43.412;24.612;2023-02-23T11:16:00;100140.13;;;13.47;61.93
11672;BME280;5892;43.412;24.612;2023-02-23T11:18:28;100013.50;;;12.76;61.57
11672;BME280;5892;43.412;24.612;2023-02-23T11:20:55;100147.19;;;13.77;61.68
11672;BME280;5892;43.412;24.612;2023-02-23T11:23:24;100103.19;;;13.89;60.91
11672;BME280;5892;43.412;24.612;2023-02-23T11:25:54;100111.41;;;13.77;59.79
11672;BME280;5892;43.412;24.612;2023-02-23T11:28:28;100143.44;;;13.61;60.60
11672;BME280;5892;43.412;24.612;2023-02-23T11:30:59;100146.66;;;13.84;60.42
11672;BME280;5892;43.412;24.612;2023-02-23T11:33:29;100119.44;;;13.62;60.31
11672;BME280;5892;43.412;24.612;2023-02-23T11:36:13;100121.56;;;13.85;60.23
11672;BME280;5892;43.412;24.612;2023-02-23T11:38:40;100135.19;;;14.35;59.04
11672;BME280;5892;43.412;24.612;2023-02-23T11:41:17;100123.56;;;14.30;59.13
11672;BME280;5892;43.412;24.612;2023-02-23T11:43:48;100115.28;;;14.30;58.14
11672;BME280;5892;43.412;24.612;2023-02-23T11:46:17;100103.34;;;14.59;57.19
11672;BME280;5892;43.412;24.612;2023-02-23T11:48:49;100083.91;;;14.55;56.69
11672;BME280;5892;43.412;24.612;2023-02-23T11:51:25;100139.94;;;15.04;56.24
11672;BME280;5892;43.412;24.612;2023-02-23T11:53:54;100147.00;;;14.57;56.46
11672;BME280;5892;43.412;24.612;2023-02-23T11:56:23;100068.84;;;14.08;57.25
11672;BME280;5892;43.412;24.612;2023-02-23T11:58:53;100135.69;;;14.17;57.69
11672;BME280;5892;43.412;24.612;2023-02-23T12:01:34;100121.81;;;14.25;57.85
11672;BME280;5892;43.412;24.612;2023-02-23T12:04:04;100108.63;;;14.31;57.74
11672;BME280;5892;43.412;24.612;2023-02-23T12:06:34;100107.53;;;14.11;57.52
11672;BME280;5892;43.412;24.612;2023-02-23T12:09:10;100136.41;;;14.47;57.18
11672;BME280;5892;43.412;24.612;2023-02-23T12:11:47;100134.88;;;14.37;57.47
11672;BME280;5892;43.412;24.612;2023-02-23T12:14:25;100114.31;;;13.81;58.91
11672;BME280;5892;43.412;24.612;2023-02-23T12:16:57;100128.69;;;13.86;59.05
11672;BME280;5892;43.412;24.612;2023-02-23T12:19:28;100153.09;;;14.09;58.84
11672;BME280;5892;43.412;24.612;2023-02-23T12:22:01;100131.66;;;14.14;58.60
11672;BME280;5892;43.412;24.612;2023-02-23T12:24:38;100121.91;;;14.37;58.11
11672;BME280;5892;43.412;24.612;2023-02-23T12:27:10;100068.25;;;14.02;57.74
11672;BME280;5892;43.412;24.612;2023-02-23T12:29:48;100102.28;;;14.39;56.96
11672;BME280;5892;43.412;24.612;2023-02-23T12:32:21;100133.81;;;14.74;56.47
11672;BME280;5892;43.412;24.612;2023-02-23T12:34:53;100114.84;;;14.28;57.04
11672;BME280;5892;43.412;24.612;2023-02-23T12:37:31;100047.78;;;13.91;56.84
11672;BME280;5892;43.412;24.612;2023-02-23T12:40:12;100127.31;;;14.46;56.94
11672;BME280;5892;43.412;24.612;2023-02-23T12:42:45;100099.97;;;14.41;56.53
11672;BME280;5892;43.412;24.612;2023-02-23T12:45:22;100125.13;;;14.19;57.67
11672;BME280;5892;43.412;24.612;2023-02-23T12:47:55;100125.94;;;14.19;58.04
11672;BME280;5892;43.412;24.612;2023-02-23T12:50:27;100119.78;;;14.02;58.45
11672;BME280;5892;43.412;24.612;2023-02-23T12:52:57;100144.59;;;14.02;58.55
11672;BME280;5892;43.412;24.612;2023-02-23T12:55:34;100131.81;;;14.18;58.72
11672;BME280;5892;43.412;24.612;2023-02-23T12:58:13;100135.22;;;14.15;58.28
11672;BME280;5892;43.412;24.612;2023-02-23T13:00:52;100126.22;;;14.06;58.80
11672;BME280;5892;43.412;24.612;2023-02-23T13:03:36;100129.16;;;14.21;57.98
11672;BME280;5892;43.412;24.612;2023-02-23T13:06:10;100140.53;;;14.20;58.27
11672;BME280;5892;43.412;24.612;2023-02-23T13:08:59;100074.06;;;13.68;58.41
11672;BME280;5892;43.412;24.612;2023-02-23T13:11:51;100120.56;;;14.23;58.15
11672;BME280;5892;43.412;24.612;2023-02-23T13:14:28;100123.78;;;14.25;57.85
11672;BME280;5892;43.412;24.612;2023-02-23T13:17:04;100135.59;;;14.46;57.50
11672;BME280;5892;43.412;24.612;2023-02-23T13:19:37;100107.94;;;14.22;57.21
11672;BME280;5892;43.412;24.612;2023-02-23T13:22:20;100079.00;;;13.95;57.52
11672;BME280;5892;43.412;24.612;2023-02-23T13:24:53;100053.88;;;13.96;57.49
11672;BME280;5892;43.412;24.612;2023-02-23T13:27:26;100083.91;;;13.89;57.42
11672;BME280;5892;43.412;24.612;2023-02-23T13:29:55;100130.75;;;14.43;57.39
11672;BME280;5892;43.412;24.612;2023-02-23T13:32:27;100133.16;;;14.45;57.21